createdAt,value
2023-01-25T00:00:24.389Z,34.60
2023-01-25T00:02:51.195Z,29.15
2023-01-25T00:05:18.023Z,31.23
2023-01-25T00:07:44.704Z,31.08
2023-01-25T00:10:11.494Z,29.92
2023-01-25T00:12:38.150Z,27.15
2023-01-25T00:15:05.724Z,30.95
2023-01-25T00:17:32.799Z,31.55
2023-01-25T00:19:59.567Z,32.65
2023-01-25T00:22:26.212Z,31.05
2023-01-25T00:24:52.912Z,28.73
2023-01-25T00:27:19.645Z,28.00
2023-01-25T00:29:46.398Z,31.73
2023-01-25T00:32:13.136Z,30.67
2023-01-25T00:34:52.217Z,28.90
2023-01-25T00:37:30.687Z,32.25
2023-01-25T00:39:57.457Z,27.27
2023-01-25T00:42:24.194Z,31.13
2023-01-25T00:44:50.990Z,29.50
2023-01-25T00:47:17.913Z,26.70
2023-01-25T00:49:45.163Z,30.48
2023-01-25T00:52:12.133Z,27.20
2023-01-25T00:54:42.244Z,27.23
2023-01-25T00:57:09.581Z,29.25
2023-01-25T00:59:36.367Z,27.05
2023-01-25T01:02:03.465Z,30.00
2023-01-25T01:04:30.719Z,28.15
2023-01-25T01:06:57.444Z,27.98
2023-01-25T01:09:24.664Z,27.00
2023-01-25T01:11:51.604Z,26.77
2023-01-25T01:14:18.690Z,26.33
2023-01-25T01:16:45.587Z,26.95
2023-01-25T01:19:13.143Z,28.25
2023-01-25T01:21:39.830Z,30.63
2023-01-25T01:24:06.835Z,30.73
2023-01-25T01:26:33.577Z,27.67
2023-01-25T01:29:00.313Z,28.73
2023-01-25T01:31:27.313Z,26.42
2023-01-25T01:33:56.132Z,26.88
2023-01-25T01:36:24.764Z,27.02
2023-01-25T01:38:51.472Z,26.27
2023-01-25T01:41:18.562Z,27.35
2023-01-25T01:43:45.405Z,27.55
2023-01-25T01:46:14.086Z,27.95
2023-01-25T01:48:53.037Z,29.63
2023-01-25T01:51:19.911Z,30.30
2023-01-25T01:53:53.432Z,29.88
2023-01-25T01:56:24.739Z,27.73
2023-01-25T01:58:51.488Z,30.17
2023-01-25T02:01:18.305Z,27.23
2023-01-25T02:03:45.039Z,27.48
2023-01-25T02:06:17.233Z,27.67
2023-01-25T02:08:44.143Z,29.93
2023-01-25T02:11:10.881Z,29.33
2023-01-25T02:13:38.355Z,28.77
2023-01-25T02:16:05.525Z,27.27
2023-01-25T02:18:32.287Z,28.08
2023-01-25T02:20:59.113Z,29.48
2023-01-25T02:23:34.862Z,27.90
2023-01-25T02:26:03.216Z,30.92
2023-01-25T02:28:44.062Z,28.65
2023-01-25T02:31:10.894Z,29.67
2023-01-25T02:33:37.630Z,27.17
2023-01-25T02:36:07.260Z,25.27
2023-01-25T02:38:35.946Z,25.52
2023-01-25T02:41:06.103Z,25.63
2023-01-25T02:43:33.314Z,26.42
2023-01-25T02:46:12.574Z,30.02
2023-01-25T02:48:39.306Z,27.05
2023-01-25T02:51:09.806Z,24.77
2023-01-25T02:53:36.795Z,28.80
2023-01-25T02:56:03.899Z,32.28
2023-01-25T02:58:31.867Z,26.02
2023-01-25T03:00:59.012Z,28.20
2023-01-25T03:03:25.783Z,32.03
2023-01-25T03:05:52.646Z,30.30
2023-01-25T03:08:19.398Z,27.60
2023-01-25T03:10:46.231Z,31.45
2023-01-25T03:13:12.926Z,28.55
2023-01-25T03:15:39.657Z,31.05
2023-01-25T03:18:06.447Z,30.02
2023-01-25T03:20:33.371Z,25.25
2023-01-25T03:23:00.062Z,29.38
2023-01-25T03:25:27.211Z,29.27
2023-01-25T03:27:54.396Z,26.30
2023-01-25T03:30:21.095Z,27.38
2023-01-25T03:32:47.777Z,25.55
2023-01-25T03:35:14.867Z,25.60
2023-01-25T03:37:41.717Z,26.13
2023-01-25T03:40:09.403Z,26.83
2023-01-25T03:42:36.176Z,27.30
2023-01-25T03:45:03.029Z,29.25
2023-01-25T03:47:29.700Z,25.63
2023-01-25T03:49:56.425Z,26.73
2023-01-25T03:52:24.672Z,27.42
2023-01-25T03:54:51.460Z,25.55
2023-01-25T03:57:18.204Z,23.10
2023-01-25T03:59:45.042Z,25.50
2023-01-25T04:02:12.933Z,23.65
2023-01-25T04:04:39.793Z,18.60
2023-01-25T04:07:06.488Z,20.88
2023-01-25T04:09:33.248Z,19.30
2023-01-25T04:11:59.995Z,21.95
2023-01-25T04:14:43.421Z,20.05
2023-01-25T04:17:11.004Z,23.48
2023-01-25T04:19:37.913Z,24.92
2023-01-25T04:22:04.596Z,19.60
2023-01-25T04:24:31.447Z,18.65
2023-01-25T04:26:58.117Z,18.45
2023-01-25T04:29:35.487Z,18.35
2023-01-25T04:32:07.161Z,19.92
2023-01-25T04:34:33.981Z,17.42
2023-01-25T04:37:00.630Z,19.27
2023-01-25T04:39:27.332Z,20.35
2023-01-25T04:41:54.055Z,17.60
2023-01-25T04:44:20.777Z,20.27
2023-01-25T04:46:48.835Z,18.90
2023-01-25T04:49:15.510Z,17.48
2023-01-25T04:51:42.183Z,19.40
2023-01-25T04:54:08.873Z,19.45
2023-01-25T04:56:35.601Z,17.35
2023-01-25T04:59:02.299Z,18.63
2023-01-25T05:01:29.093Z,18.58
2023-01-25T05:03:55.794Z,19.42
2023-01-25T05:06:22.442Z,18.33
2023-01-25T05:08:49.161Z,17.67
2023-01-25T05:11:15.805Z,18.23
2023-01-25T05:13:42.503Z,19.52
2023-01-25T05:16:09.825Z,19.50
2023-01-25T05:18:47.982Z,16.60
2023-01-25T05:21:34.329Z,16.48
2023-01-25T05:24:01.135Z,16.60
2023-01-25T05:26:46.348Z,15.20
2023-01-25T05:29:13.167Z,16.23
2023-01-25T05:31:39.901Z,16.75
2023-01-25T05:34:06.603Z,14.95
2023-01-25T05:36:33.276Z,15.88
2023-01-25T05:38:59.955Z,14.45
2023-01-25T05:41:26.734Z,15.68
2023-01-25T05:43:53.489Z,16.85
2023-01-25T05:46:20.289Z,15.20
2023-01-25T05:48:48.263Z,13.82
2023-01-25T05:51:15.094Z,17.95
2023-01-25T05:53:41.811Z,14.00
2023-01-25T05:56:10.869Z,18.40
2023-01-25T05:58:38.355Z,16.45
2023-01-25T06:01:07.084Z,19.42
2023-01-25T06:03:34.508Z,15.80
2023-01-25T06:06:03.048Z,16.98
2023-01-25T06:08:31.288Z,15.32
2023-01-25T06:10:58.295Z,16.50
2023-01-25T06:13:25.331Z,16.95
2023-01-25T06:15:55.916Z,16.67
2023-01-25T06:18:24.702Z,15.90
2023-01-25T06:20:51.533Z,16.00
2023-01-25T06:23:18.629Z,16.13
2023-01-25T06:25:45.339Z,15.55
2023-01-25T06:28:12.117Z,17.15
2023-01-25T06:30:39.938Z,15.70
2023-01-25T06:33:06.813Z,18.20
2023-01-25T06:35:34.047Z,16.45
2023-01-25T06:38:01.349Z,15.82
2023-01-25T06:40:29.580Z,18.17
2023-01-25T06:42:56.558Z,16.48
2023-01-25T06:45:23.295Z,15.32
2023-01-25T06:47:50.095Z,15.68
2023-01-25T06:50:16.780Z,15.02
2023-01-25T06:52:43.460Z,13.77
2023-01-25T06:55:14.054Z,15.98
2023-01-25T06:57:40.904Z,15.55
2023-01-25T07:00:08.591Z,15.35
2023-01-25T07:02:36.545Z,15.68
2023-01-25T07:05:03.734Z,15.18
2023-01-25T07:07:30.480Z,14.07
2023-01-25T07:09:59.052Z,11.73
2023-01-25T07:12:26.081Z,13.68
2023-01-25T07:14:52.837Z,12.25
2023-01-25T07:17:19.476Z,15.32
2023-01-25T07:19:46.201Z,13.80
2023-01-25T07:22:12.877Z,13.18
2023-01-25T07:24:39.955Z,15.95
2023-01-25T07:27:06.644Z,13.02
2023-01-25T07:29:33.449Z,14.93
2023-01-25T07:32:00.121Z,14.13
2023-01-25T07:34:29.037Z,16.30
2023-01-25T07:36:55.838Z,13.30
2023-01-25T07:39:22.531Z,13.90
2023-01-25T07:41:49.254Z,13.82
2023-01-25T07:44:16.092Z,14.70
2023-01-25T07:46:42.770Z,13.45
2023-01-25T07:49:09.445Z,13.75
2023-01-25T07:51:36.093Z,14.85
2023-01-25T07:54:04.810Z,14.50
2023-01-25T07:56:33.783Z,16.27
2023-01-25T07:59:02.816Z,17.13
2023-01-25T08:01:31.227Z,16.13
2023-01-25T08:03:58.149Z,15.55
2023-01-25T08:06:27.805Z,16.17
2023-01-25T08:08:55.387Z,13.88
2023-01-25T08:11:27.187Z,12.50
2023-01-25T08:13:54.069Z,13.75
2023-01-25T08:16:22.843Z,14.35
2023-01-25T08:18:50.813Z,13.88
2023-01-25T08:21:17.893Z,12.40
2023-01-25T08:23:45.351Z,13.80
2023-01-25T08:26:14.379Z,15.68
2023-01-25T08:28:41.760Z,12.45
2023-01-25T08:31:18.917Z,12.10
2023-01-25T08:33:47.128Z,12.00
2023-01-25T08:36:15.450Z,12.90
2023-01-25T08:38:42.881Z,13.25
2023-01-25T08:41:17.893Z,12.07
2023-01-25T08:43:45.335Z,14.82
2023-01-25T08:46:13.522Z,12.32
2023-01-25T08:48:40.827Z,15.15
2023-01-25T08:51:16.307Z,11.90
2023-01-25T08:53:43.653Z,11.27
2023-01-25T08:56:12.976Z,12.23
2023-01-25T08:58:44.449Z,13.20
2023-01-25T09:01:13.723Z,14.70
2023-01-25T09:03:43.085Z,14.15
2023-01-25T09:06:10.970Z,16.02
2023-01-25T09:08:40.917Z,12.65
2023-01-25T09:11:16.517Z,14.25
2023-01-25T09:13:44.346Z,12.93
2023-01-25T09:16:15.517Z,15.45
2023-01-25T09:18:44.554Z,15.02
2023-01-25T09:21:13.539Z,11.45
2023-01-25T09:23:50.979Z,13.82
2023-01-25T09:26:18.779Z,13.95
2023-01-25T09:28:50.825Z,11.68
2023-01-25T09:31:22.138Z,13.75
2023-01-25T09:33:50.598Z,13.57
2023-01-25T09:36:17.443Z,14.88
2023-01-25T09:38:45.352Z,14.55
2023-01-25T09:41:31.261Z,13.32
2023-01-25T09:44:14.171Z,16.23
2023-01-25T09:46:57.310Z,13.48
2023-01-25T09:49:44.655Z,13.40
2023-01-25T09:52:29.644Z,15.85
2023-01-25T09:54:56.405Z,13.88
2023-01-25T09:57:33.733Z,13.95
2023-01-25T10:00:04.158Z,15.20
2023-01-25T10:02:31.229Z,15.07
2023-01-25T10:05:04.436Z,13.10
2023-01-25T10:10:35.175Z,14.23
2023-01-25T10:13:03.213Z,14.20
2023-01-25T10:15:34.459Z,17.42
2023-01-25T10:18:27.312Z,15.90
2023-01-25T10:21:24.475Z,15.45
2023-01-25T10:23:54.558Z,14.50
2023-01-25T10:26:30.346Z,14.68
2023-01-25T10:29:10.341Z,15.45
2023-01-25T10:31:50.583Z,15.35
2023-01-25T10:34:22.435Z,15.93
2023-01-25T10:37:03.093Z,14.68
2023-01-25T10:39:29.991Z,18.45
2023-01-25T10:42:01.113Z,18.67
2023-01-25T10:44:29.195Z,15.82
2023-01-25T10:47:14.754Z,15.68
2023-01-25T10:49:48.996Z,17.73
2023-01-25T10:52:22.839Z,19.52
2023-01-25T10:55:16.661Z,16.48
2023-01-25T10:57:44.797Z,18.80
2023-01-25T11:00:36.960Z,18.02
2023-01-25T11:03:04.469Z,18.10
2023-01-25T11:05:34.274Z,15.95
2023-01-25T11:08:43.335Z,16.38
2023-01-25T11:11:26.543Z,18.60
2023-01-25T11:13:57.237Z,17.60
2023-01-25T11:16:36.310Z,16.38
2023-01-25T11:19:04.057Z,17.98
2023-01-25T11:21:33.206Z,17.92
2023-01-25T11:24:09.604Z,21.98
2023-01-25T11:26:38.251Z,22.92
2023-01-25T11:29:22.294Z,19.10
2023-01-25T11:31:54.206Z,19.80
2023-01-25T11:34:28.559Z,20.45
2023-01-25T11:37:09.945Z,18.88
2023-01-25T11:39:36.677Z,20.73
2023-01-25T11:42:25.112Z,18.50
2023-01-25T11:45:26.070Z,20.63
2023-01-25T11:47:55.151Z,20.15
2023-01-25T11:50:35.236Z,20.83
2023-01-25T11:53:17.025Z,18.40
2023-01-25T11:55:54.465Z,19.65
2023-01-25T11:58:36.504Z,19.55
2023-01-25T12:01:37.773Z,18.92
2023-01-25T12:04:46.413Z,18.17
2023-01-25T12:07:14.583Z,19.98
2023-01-25T12:09:51.120Z,18.13
2023-01-25T12:12:30.077Z,19.00
2023-01-25T12:15:19.681Z,18.45
2023-01-25T12:18:09.381Z,20.00
2023-01-25T12:20:55.080Z,20.55
2023-01-25T12:23:33.205Z,21.30
2023-01-25T12:26:27.388Z,19.45
2023-01-25T12:28:56.991Z,21.70
2023-01-25T12:31:35.966Z,18.48
2023-01-25T12:34:04.537Z,19.65
2023-01-25T12:36:40.803Z,19.60
2023-01-25T12:39:13.264Z,20.13
2023-01-25T12:41:45.175Z,22.00
2023-01-25T12:44:28.110Z,22.75
2023-01-25T12:47:15.647Z,23.58
2023-01-25T12:49:50.119Z,22.90
2023-01-25T12:52:31.185Z,20.98
2023-01-25T12:55:02.349Z,21.25
2023-01-25T12:58:03.372Z,20.50
2023-01-25T13:00:40.765Z,23.27
2023-01-25T13:03:22.517Z,21.30
2023-01-25T13:05:54.239Z,21.00
2023-01-25T13:08:50.895Z,20.52
2023-01-25T13:11:44.838Z,24.02
2023-01-25T13:14:18.269Z,20.45
2023-01-25T13:16:53.855Z,24.42
2023-01-25T13:19:32.161Z,21.63
2023-01-25T13:22:00.493Z,22.27
2023-01-25T13:24:35.805Z,22.15
2023-01-25T13:27:11.796Z,22.77
2023-01-25T13:29:51.728Z,23.20
2023-01-25T13:32:25.043Z,23.80
2023-01-25T13:34:55.765Z,23.45
2023-01-25T13:37:23.726Z,22.35
2023-01-25T13:40:06.438Z,22.98
2023-01-25T13:42:35.434Z,20.92
2023-01-25T13:45:19.295Z,26.13
2023-01-25T13:48:02.185Z,21.15
2023-01-25T13:50:40.324Z,23.80
2023-01-25T13:53:24.840Z,23.17
2023-01-25T13:55:53.472Z,23.25
2023-01-25T13:58:22.749Z,19.40
2023-01-25T14:00:53.738Z,22.48
2023-01-25T14:03:29.629Z,24.33
2023-01-25T14:05:58.722Z,26.17
2023-01-25T14:08:25.979Z,21.75
2023-01-25T14:10:53.199Z,22.10
2023-01-25T14:13:20.568Z,24.02
2023-01-25T14:15:55.906Z,24.17
2023-01-25T14:18:28.460Z,22.70
2023-01-25T14:21:15.316Z,24.80
2023-01-25T14:23:42.401Z,22.65
2023-01-25T14:26:22.486Z,22.17
2023-01-25T14:29:01.991Z,21.63
2023-01-25T14:31:37.194Z,21.35
2023-01-25T14:34:05.269Z,21.75
2023-01-25T14:36:35.002Z,22.40
2023-01-25T14:39:04.694Z,24.98
2023-01-25T14:41:51.575Z,25.02
2023-01-25T14:44:22.808Z,27.27
2023-01-25T14:46:49.912Z,28.38
2023-01-25T14:49:26.963Z,26.55
2023-01-25T14:52:00.222Z,32.30
2023-01-25T14:54:32.103Z,30.88
2023-01-25T14:57:03.766Z,29.02
2023-01-25T14:59:34.833Z,29.63
2023-01-25T15:02:25.252Z,29.70
2023-01-25T15:04:53.440Z,26.92
2023-01-25T15:07:46.233Z,27.40
2023-01-25T15:10:30.079Z,27.42
2023-01-25T15:13:15.150Z,26.95
2023-01-25T15:16:00.199Z,27.00
2023-01-25T15:18:51.634Z,26.42
2023-01-25T15:21:32.384Z,27.60
2023-01-25T15:24:07.171Z,27.33
2023-01-25T15:26:35.757Z,31.90
2023-01-25T15:29:22.811Z,24.65
2023-01-25T15:31:50.771Z,28.67
2023-01-25T15:34:21.271Z,31.40
2023-01-25T15:36:48.367Z,28.45
2023-01-25T15:39:17.927Z,28.10
2023-01-25T15:41:45.187Z,28.02
2023-01-25T15:44:12.561Z,27.80
2023-01-25T15:46:44.611Z,28.17
2023-01-25T15:49:19.010Z,30.23
2023-01-25T15:51:46.017Z,34.30
2023-01-25T15:54:13.203Z,32.47
2023-01-25T15:56:40.920Z,29.20
2023-01-25T15:59:09.532Z,35.28
2023-01-25T16:01:36.456Z,30.20
2023-01-25T16:04:03.271Z,35.05
2023-01-25T16:06:43.439Z,35.38
2023-01-25T16:09:14.871Z,35.40
2023-01-25T16:11:41.791Z,34.70
2023-01-25T16:14:08.642Z,33.08
2023-01-25T16:16:49.415Z,32.03
2023-01-25T16:19:20.804Z,30.10
2023-01-25T16:21:47.831Z,30.30
2023-01-25T16:24:15.019Z,26.05
2023-01-25T16:26:48.367Z,29.77
2023-01-25T16:29:15.184Z,26.48
2023-01-25T16:31:42.063Z,28.70
2023-01-25T16:34:08.885Z,30.83
2023-01-25T16:36:36.539Z,33.20
2023-01-25T16:39:10.394Z,34.80
2023-01-25T16:41:37.360Z,32.55
2023-01-25T16:44:04.141Z,31.88
2023-01-25T16:46:31.178Z,30.50
2023-01-25T16:48:59.361Z,29.58
2023-01-25T16:51:27.939Z,27.75
2023-01-25T16:53:56.241Z,30.98
2023-01-25T16:56:23.796Z,28.88
2023-01-25T16:58:51.236Z,32.08
2023-01-25T17:01:19.347Z,32.17
2023-01-25T17:03:46.904Z,28.52
2023-01-25T17:06:18.796Z,30.80
2023-01-25T17:08:46.930Z,32.38
2023-01-25T17:11:14.086Z,32.30
2023-01-25T17:13:41.242Z,31.05
2023-01-25T17:16:08.252Z,31.65
2023-01-25T17:18:35.069Z,34.20
2023-01-25T17:21:04.540Z,29.48
2023-01-25T17:23:33.140Z,29.35
2023-01-25T17:26:04.222Z,28.42
2023-01-25T17:28:31.227Z,29.60
2023-01-25T17:30:58.084Z,29.30
2023-01-25T17:33:25.167Z,28.80
2023-01-25T17:35:58.450Z,29.13
2023-01-25T17:38:29.292Z,25.67
2023-01-25T17:40:56.129Z,22.50
2023-01-25T17:43:23.118Z,22.60
2023-01-25T17:45:50.148Z,24.20
2023-01-25T17:48:16.938Z,23.42
2023-01-25T17:50:43.676Z,23.58
2023-01-25T17:53:11.000Z,24.02
2023-01-25T17:55:39.115Z,23.40
2023-01-25T17:58:06.320Z,22.25
2023-01-25T18:00:33.133Z,21.48
2023-01-25T18:02:59.928Z,24.10
2023-01-25T18:05:29.835Z,24.17
2023-01-25T18:07:56.662Z,23.73
2023-01-25T18:10:23.525Z,22.75
2023-01-25T18:13:03.721Z,20.40
2023-01-25T18:15:32.341Z,22.52
2023-01-25T18:18:00.158Z,22.48
2023-01-25T18:20:26.939Z,24.52
2023-01-25T18:22:54.318Z,18.50
2023-01-25T18:25:34.926Z,28.65
2023-01-25T18:28:01.789Z,25.02
2023-01-25T18:30:58.849Z,24.90
2023-01-25T18:33:25.758Z,22.63
2023-01-25T18:35:54.055Z,25.38
2023-01-25T18:38:21.883Z,22.73
2023-01-25T18:40:48.895Z,21.15
2023-01-25T18:43:17.271Z,19.23
2023-01-25T18:45:44.342Z,19.95
2023-01-25T18:48:14.472Z,22.20
2023-01-25T18:50:41.914Z,26.50
2023-01-25T18:53:10.182Z,22.95
2023-01-25T18:55:37.539Z,20.50
2023-01-25T18:58:05.237Z,22.25
2023-01-25T19:00:33.156Z,18.98
2023-01-25T19:03:00.453Z,20.45
2023-01-25T19:05:27.539Z,19.52
2023-01-25T19:07:54.514Z,18.77
2023-01-25T19:10:21.382Z,17.92
2023-01-25T19:12:48.315Z,21.30
2023-01-25T19:15:19.737Z,21.00
2023-01-25T19:17:46.616Z,21.98
2023-01-25T19:20:16.831Z,19.38
2023-01-25T19:22:48.103Z,20.85
2023-01-25T19:25:16.575Z,21.10
2023-01-25T19:27:46.249Z,19.23
2023-01-25T19:30:16.329Z,20.77
2023-01-25T19:32:43.036Z,20.63
2023-01-25T19:35:09.990Z,20.30
2023-01-25T19:37:36.954Z,21.58
2023-01-25T19:40:03.965Z,19.95
2023-01-25T19:42:30.671Z,22.85
2023-01-25T19:44:59.191Z,21.50
2023-01-25T19:47:25.894Z,23.52
2023-01-25T19:49:52.753Z,24.85
2023-01-25T19:52:19.446Z,24.30
2023-01-25T19:54:46.269Z,25.17
2023-01-25T19:57:12.996Z,27.08
2023-01-25T19:59:39.764Z,29.88
2023-01-25T20:02:06.709Z,25.95
2023-01-25T20:04:33.533Z,28.60
2023-01-25T20:07:00.296Z,27.05
2023-01-25T20:09:28.741Z,23.95
2023-01-25T20:11:57.049Z,23.50
2023-01-25T20:14:24.287Z,24.10
2023-01-25T20:16:52.913Z,22.58
2023-01-25T20:19:20.141Z,23.05
2023-01-25T20:21:46.840Z,21.15
2023-01-25T20:24:13.628Z,19.95
2023-01-25T20:26:42.943Z,20.23
2023-01-25T20:29:10.897Z,25.02
2023-01-25T20:31:40.121Z,23.15
2023-01-25T20:34:12.022Z,26.45
2023-01-25T20:36:38.964Z,22.67
2023-01-25T20:39:06.609Z,27.70
2023-01-25T20:41:33.454Z,23.30
2023-01-25T20:44:02.177Z,24.80
2023-01-25T20:46:29.931Z,26.98
2023-01-25T20:48:56.759Z,29.13
2023-01-25T20:51:24.162Z,26.75
2023-01-25T20:53:51.462Z,26.95
2023-01-25T20:56:18.974Z,29.25
2023-01-25T20:58:50.608Z,26.08
2023-01-25T21:01:24.899Z,26.67
2023-01-25T21:03:54.515Z,29.63
2023-01-25T21:06:21.281Z,29.27
2023-01-25T21:08:48.069Z,30.38
2023-01-25T21:11:15.136Z,27.67
2023-01-25T21:13:42.002Z,28.63
2023-01-25T21:16:12.565Z,26.30
2023-01-25T21:18:40.887Z,28.92
2023-01-25T21:21:12.430Z,28.48
2023-01-25T21:23:44.970Z,27.13
2023-01-25T21:26:22.793Z,25.30
2023-01-25T21:28:50.242Z,24.58
2023-01-25T21:31:19.270Z,29.45
2023-01-25T21:33:46.252Z,26.30
2023-01-25T21:36:16.909Z,22.83
2023-01-25T21:38:46.176Z,19.73
2023-01-25T21:41:24.877Z,25.13
2023-01-25T21:44:14.353Z,23.50
2023-01-25T21:46:41.519Z,22.38
2023-01-25T21:49:27.749Z,23.00
2023-01-25T21:51:58.174Z,23.70
2023-01-25T21:54:32.761Z,21.58
2023-01-25T21:57:02.760Z,25.48
2023-01-25T21:59:29.572Z,21.90
2023-01-25T22:01:56.429Z,23.45
2023-01-25T22:04:25.435Z,22.30
2023-01-25T22:06:52.767Z,25.10
2023-01-25T22:09:20.051Z,21.92
2023-01-25T22:11:47.037Z,23.60
2023-01-25T22:14:14.775Z,24.42
2023-01-25T22:16:41.499Z,20.73
2023-01-25T22:19:08.474Z,24.52
2023-01-25T22:21:35.272Z,24.88
2023-01-25T22:24:05.639Z,24.83
2023-01-25T22:26:45.926Z,26.33
2023-01-25T22:29:12.994Z,26.33
2023-01-25T22:31:39.982Z,24.92
2023-01-25T22:34:06.880Z,27.15
2023-01-25T22:36:33.731Z,26.23
2023-01-25T22:39:00.486Z,27.92
2023-01-25T22:41:30.323Z,24.73
2023-01-25T22:43:57.122Z,23.23
2023-01-25T22:46:25.914Z,21.08
2023-01-25T22:48:52.851Z,25.35
2023-01-25T22:51:25.522Z,26.55
2023-01-25T22:53:52.979Z,24.60
2023-01-25T22:56:21.668Z,27.95
2023-01-25T22:58:48.538Z,28.05
2023-01-25T23:01:17.980Z,23.83
2023-01-25T23:03:44.879Z,28.88
2023-01-25T23:06:14.461Z,28.55
2023-01-25T23:08:41.568Z,27.95
2023-01-25T23:11:11.603Z,31.67
2023-01-25T23:13:39.954Z,30.85
2023-01-25T23:16:09.045Z,31.88
2023-01-25T23:18:51.348Z,33.33
2023-01-25T23:21:19.868Z,33.58
2023-01-25T23:23:46.934Z,33.10
2023-01-25T23:26:14.066Z,34.15
2023-01-25T23:28:40.875Z,35.22
2023-01-25T23:31:18.285Z,35.55
2023-01-25T23:33:46.603Z,33.35
2023-01-25T23:36:15.701Z,36.70
2023-01-25T23:38:44.791Z,41.70
2023-01-25T23:41:11.613Z,43.47
2023-01-25T23:43:38.545Z,40.83
2023-01-25T23:46:05.651Z,43.78
2023-01-25T23:48:32.799Z,42.92
2023-01-25T23:50:59.683Z,45.58
2023-01-25T23:53:31.210Z,44.60
2023-01-25T23:56:02.283Z,44.38
2023-01-25T23:58:30.005Z,43.97
